sensor_id;sensor_type;location;lat;lon;timestamp;P1;durP1;ratioP1;P2;durP2;ratioP2
69305;SDS011;56427;51.580;4.656;2023-01-10T00:01:48;11.13;;;2.55;;
69305;SDS011;56427;51.580;4.656;2023-01-10T00:04:14;8.17;;;1.60;;
69305;SDS011;56427;51.580;4.656;2023-01-10T00:06:39;16.07;;;1.90;;
69305;SDS011;56427;51.580;4.656;2023-01-10T00:09:04;8.33;;;2.03;;
69305;SDS011;56427;51.580;4.656;2023-01-10T00:11:29;16.73;;;2.13;;
69305;SDS011;56427;51.580;4.656;2023-01-10T00:14:13;8.85;;;1.88;;
69305;SDS011;56427;51.580;4.656;2023-01-10T00:16:39;19.43;;;1.97;;
69305;SDS011;56427;51.580;4.656;2023-01-10T00:19:06;16.25;;;2.45;;
69305;SDS011;56427;51.580;4.656;2023-01-10T00:21:34;15.70;;;2.47;;
69305;SDS011;56427;51.580;4.656;2023-01-10T00:23:59;16.20;;;2.08;;
69305;SDS011;56427;51.580;4.656;2023-01-10T00:26:32;12.52;;;2.72;;
69305;SDS011;56427;51.580;4.656;2023-01-10T00:28:58;13.50;;;2.00;;
69305;SDS011;56427;51.580;4.656;2023-01-10T00:31:23;18.63;;;2.27;;
69305;SDS011;56427;51.580;4.656;2023-01-10T00:33:48;10.77;;;1.90;;
69305;SDS011;56427;51.580;4.656;2023-01-10T00:36:14;10.97;;;1.87;;
69305;SDS011;56427;51.580;4.656;2023-01-10T00:38:39;11.30;;;2.13;;
69305;SDS011;56427;51.580;4.656;2023-01-10T00:41:04;13.53;;;1.93;;
69305;SDS011;56427;51.580;4.656;2023-01-10T00:43:52;15.32;;;2.60;;
69305;SDS011;56427;51.580;4.656;2023-01-10T00:46:20;16.30;;;2.20;;
69305;SDS011;56427;51.580;4.656;2023-01-10T00:48:46;17.33;;;3.00;;
69305;SDS011;56427;51.580;4.656;2023-01-10T00:51:11;11.53;;;1.77;;
69305;SDS011;56427;51.580;4.656;2023-01-10T00:53:36;12.73;;;1.90;;
69305;SDS011;56427;51.580;4.656;2023-01-10T00:56:01;17.53;;;2.17;;
69305;SDS011;56427;51.580;4.656;2023-01-10T00:58:27;16.50;;;2.67;;
69305;SDS011;56427;51.580;4.656;2023-01-10T01:00:52;16.77;;;2.30;;
69305;SDS011;56427;51.580;4.656;2023-01-10T01:03:18;18.10;;;2.30;;
69305;SDS011;56427;51.580;4.656;2023-01-10T01:05:45;18.67;;;2.22;;
69305;SDS011;56427;51.580;4.656;2023-01-10T01:08:13;14.68;;;2.22;;
69305;SDS011;56427;51.580;4.656;2023-01-10T01:10:39;15.70;;;2.28;;
69305;SDS011;56427;51.580;4.656;2023-01-10T01:13:06;15.57;;;2.13;;
69305;SDS011;56427;51.580;4.656;2023-01-10T01:15:33;19.98;;;2.20;;
69305;SDS011;56427;51.580;4.656;2023-01-10T01:18:00;12.00;;;2.00;;
69305;SDS011;56427;51.580;4.656;2023-01-10T01:20:26;15.95;;;2.17;;
69305;SDS011;56427;51.580;4.656;2023-01-10T01:22:51;15.18;;;3.60;;
69305;SDS011;56427;51.580;4.656;2023-01-10T01:25:17;17.33;;;3.43;;
69305;SDS011;56427;51.580;4.656;2023-01-10T01:27:42;23.35;;;2.95;;
69305;SDS011;56427;51.580;4.656;2023-01-10T01:30:08;13.27;;;2.45;;
69305;SDS011;56427;51.580;4.656;2023-01-10T01:32:35;19.37;;;2.87;;
69305;SDS011;56427;51.580;4.656;2023-01-10T01:35:00;14.82;;;2.38;;
69305;SDS011;56427;51.580;4.656;2023-01-10T01:37:25;17.40;;;2.53;;
69305;SDS011;56427;51.580;4.656;2023-01-10T01:39:51;15.13;;;3.00;;
69305;SDS011;56427;51.580;4.656;2023-01-10T01:47:51;16.30;;;2.58;;
69305;SDS011;56427;51.580;4.656;2023-01-10T01:50:30;17.95;;;2.58;;
69305;SDS011;56427;51.580;4.656;2023-01-10T01:52:59;17.55;;;2.45;;
69305;SDS011;56427;51.580;4.656;2023-01-10T01:55:28;17.97;;;2.97;;
69305;SDS011;56427;51.580;4.656;2023-01-10T01:57:57;14.82;;;2.40;;
69305;SDS011;56427;51.580;4.656;2023-01-10T02:00:27;10.25;;;3.13;;
69305;SDS011;56427;51.580;4.656;2023-01-10T02:02:53;18.77;;;1.90;;
69305;SDS011;56427;51.580;4.656;2023-01-10T02:05:21;14.13;;;2.67;;
69305;SDS011;56427;51.580;4.656;2023-01-10T02:07:49;14.77;;;2.28;;
69305;SDS011;56427;51.580;4.656;2023-01-10T02:13:06;15.07;;;2.58;;
69305;SDS011;56427;51.580;4.656;2023-01-10T02:15:35;22.77;;;2.72;;
69305;SDS011;56427;51.580;4.656;2023-01-10T02:18:01;18.25;;;2.72;;
69305;SDS011;56427;51.580;4.656;2023-01-10T02:20:28;18.43;;;3.33;;
69305;SDS011;56427;51.580;4.656;2023-01-10T02:23:19;15.02;;;2.35;;
69305;SDS011;56427;51.580;4.656;2023-01-10T02:40:20;22.83;;;3.22;;
69305;SDS011;56427;51.580;4.656;2023-01-10T02:43:01;18.35;;;2.78;;
69305;SDS011;56427;51.580;4.656;2023-01-10T02:45:33;16.83;;;2.65;;
69305;SDS011;56427;51.580;4.656;2023-01-10T02:48:04;24.20;;;2.40;;
69305;SDS011;56427;51.580;4.656;2023-01-10T02:50:42;20.10;;;2.33;;
69305;SDS011;56427;51.580;4.656;2023-01-10T02:53:22;13.43;;;2.63;;
69305;SDS011;56427;51.580;4.656;2023-01-10T02:58:48;21.40;;;2.60;;
69305;SDS011;56427;51.580;4.656;2023-01-10T03:09:43;19.77;;;3.03;;
69305;SDS011;56427;51.580;4.656;2023-01-10T03:12:20;14.05;;;2.70;;
69305;SDS011;56427;51.580;4.656;2023-01-10T03:14:57;21.55;;;3.35;;
69305;SDS011;56427;51.580;4.656;2023-01-10T03:17:26;24.33;;;3.03;;
69305;SDS011;56427;51.580;4.656;2023-01-10T03:19:55;20.42;;;2.88;;
69305;SDS011;56427;51.580;4.656;2023-01-10T03:22:24;19.58;;;3.05;;
69305;SDS011;56427;51.580;4.656;2023-01-10T03:24:53;20.83;;;2.85;;
69305;SDS011;56427;51.580;4.656;2023-01-10T03:28:08;20.13;;;3.08;;
69305;SDS011;56427;51.580;4.656;2023-01-10T03:30:30;21.25;;;3.15;;
69305;SDS011;56427;51.580;4.656;2023-01-10T03:33:03;22.40;;;3.53;;
69305;SDS011;56427;51.580;4.656;2023-01-10T03:35:31;16.42;;;2.67;;
69305;SDS011;56427;51.580;4.656;2023-01-10T03:38:01;18.67;;;3.17;;
69305;SDS011;56427;51.580;4.656;2023-01-10T03:40:35;22.27;;;3.50;;
69305;SDS011;56427;51.580;4.656;2023-01-10T03:46:25;22.90;;;3.20;;
69305;SDS011;56427;51.580;4.656;2023-01-10T03:48:58;21.23;;;2.55;;
69305;SDS011;56427;51.580;4.656;2023-01-10T03:51:25;25.83;;;3.40;;
69305;SDS011;56427;51.580;4.656;2023-01-10T03:53:52;18.52;;;3.15;;
69305;SDS011;56427;51.580;4.656;2023-01-10T03:56:17;25.53;;;3.07;;
69305;SDS011;56427;51.580;4.656;2023-01-10T03:58:43;22.17;;;3.23;;
69305;SDS011;56427;51.580;4.656;2023-01-10T04:01:08;22.17;;;3.27;;
69305;SDS011;56427;51.580;4.656;2023-01-10T04:03:34;28.07;;;3.70;;
69305;SDS011;56427;51.580;4.656;2023-01-10T04:05:59;15.80;;;2.70;;
69305;SDS011;56427;51.580;4.656;2023-01-10T04:08:24;29.67;;;2.95;;
69305;SDS011;56427;51.580;4.656;2023-01-10T04:10:50;21.07;;;3.80;;
69305;SDS011;56427;51.580;4.656;2023-01-10T04:13:15;24.10;;;3.60;;
69305;SDS011;56427;51.580;4.656;2023-01-10T04:15:40;22.37;;;3.17;;
69305;SDS011;56427;51.580;4.656;2023-01-10T04:18:06;15.30;;;2.93;;
69305;SDS011;56427;51.580;4.656;2023-01-10T04:20:31;16.03;;;3.13;;
69305;SDS011;56427;51.580;4.656;2023-01-10T04:22:56;26.53;;;3.20;;
69305;SDS011;56427;51.580;4.656;2023-01-10T04:25:22;20.53;;;3.80;;
69305;SDS011;56427;51.580;4.656;2023-01-10T04:27:48;17.15;;;3.15;;
69305;SDS011;56427;51.580;4.656;2023-01-10T04:30:14;18.20;;;3.53;;
69305;SDS011;56427;51.580;4.656;2023-01-10T04:32:40;22.17;;;3.88;;
69305;SDS011;56427;51.580;4.656;2023-01-10T04:35:06;29.50;;;3.43;;
69305;SDS011;56427;51.580;4.656;2023-01-10T04:37:32;30.38;;;3.95;;
69305;SDS011;56427;51.580;4.656;2023-01-10T04:39:57;22.67;;;3.83;;
69305;SDS011;56427;51.580;4.656;2023-01-10T04:42:22;22.57;;;3.33;;
69305;SDS011;56427;51.580;4.656;2023-01-10T04:44:48;24.00;;;3.67;;
69305;SDS011;56427;51.580;4.656;2023-01-10T04:47:13;18.70;;;3.33;;
69305;SDS011;56427;51.580;4.656;2023-01-10T04:49:38;29.85;;;3.70;;
69305;SDS011;56427;51.580;4.656;2023-01-10T04:52:03;19.48;;;3.22;;
69305;SDS011;56427;51.580;4.656;2023-01-10T04:54:29;18.03;;;3.20;;
69305;SDS011;56427;51.580;4.656;2023-01-10T04:56:54;27.47;;;3.73;;
69305;SDS011;56427;51.580;4.656;2023-01-10T04:59:19;21.93;;;3.47;;
69305;SDS011;56427;51.580;4.656;2023-01-10T05:01:45;22.87;;;3.80;;
69305;SDS011;56427;51.580;4.656;2023-01-10T05:04:10;24.67;;;3.20;;
69305;SDS011;56427;51.580;4.656;2023-01-10T05:06:36;30.33;;;3.60;;
69305;SDS011;56427;51.580;4.656;2023-01-10T05:09:06;26.35;;;3.97;;
69305;SDS011;56427;51.580;4.656;2023-01-10T05:11:33;19.02;;;3.50;;
69305;SDS011;56427;51.580;4.656;2023-01-10T05:13:59;32.70;;;3.73;;
69305;SDS011;56427;51.580;4.656;2023-01-10T05:16:24;25.75;;;4.35;;
69305;SDS011;56427;51.580;4.656;2023-01-10T05:18:50;25.50;;;3.87;;
69305;SDS011;56427;51.580;4.656;2023-01-10T05:21:15;33.77;;;4.13;;
69305;SDS011;56427;51.580;4.656;2023-01-10T05:23:41;20.65;;;3.95;;
69305;SDS011;56427;51.580;4.656;2023-01-10T05:26:14;27.50;;;4.85;;
69305;SDS011;56427;51.580;4.656;2023-01-10T05:28:41;21.15;;;4.07;;
69305;SDS011;56427;51.580;4.656;2023-01-10T05:31:07;29.67;;;4.13;;
69305;SDS011;56427;51.580;4.656;2023-01-10T05:33:34;20.13;;;3.90;;
69305;SDS011;56427;51.580;4.656;2023-01-10T05:36:00;29.65;;;4.80;;
69305;SDS011;56427;51.580;4.656;2023-01-10T05:38:30;25.25;;;4.53;;
69305;SDS011;56427;51.580;4.656;2023-01-10T05:40:57;24.52;;;3.72;;
69305;SDS011;56427;51.580;4.656;2023-01-10T05:43:23;25.40;;;4.90;;
69305;SDS011;56427;51.580;4.656;2023-01-10T05:45:49;27.13;;;3.85;;
69305;SDS011;56427;51.580;4.656;2023-01-10T05:48:15;23.33;;;4.30;;
69305;SDS011;56427;51.580;4.656;2023-01-10T05:50:40;32.23;;;5.03;;
69305;SDS011;56427;51.580;4.656;2023-01-10T05:53:05;25.20;;;3.80;;
69305;SDS011;56427;51.580;4.656;2023-01-10T05:55:31;24.67;;;4.17;;
69305;SDS011;56427;51.580;4.656;2023-01-10T05:57:57;30.48;;;5.18;;
69305;SDS011;56427;51.580;4.656;2023-01-10T06:00:22;23.97;;;5.03;;
69305;SDS011;56427;51.580;4.656;2023-01-10T06:02:48;32.10;;;5.15;;
69305;SDS011;56427;51.580;4.656;2023-01-10T06:05:13;23.63;;;4.40;;
69305;SDS011;56427;51.580;4.656;2023-01-10T06:07:39;26.47;;;4.80;;
69305;SDS011;56427;51.580;4.656;2023-01-10T06:10:04;24.57;;;5.03;;
69305;SDS011;56427;51.580;4.656;2023-01-10T06:12:29;34.17;;;6.90;;
69305;SDS011;56427;51.580;4.656;2023-01-10T06:14:55;18.58;;;4.03;;
69305;SDS011;56427;51.580;4.656;2023-01-10T06:17:20;25.77;;;4.67;;
69305;SDS011;56427;51.580;4.656;2023-01-10T06:19:45;20.00;;;4.10;;
69305;SDS011;56427;51.580;4.656;2023-01-10T06:22:11;25.43;;;4.40;;
69305;SDS011;56427;51.580;4.656;2023-01-10T06:24:36;24.17;;;4.03;;
69305;SDS011;56427;51.580;4.656;2023-01-10T06:27:02;23.47;;;4.27;;
69305;SDS011;56427;51.580;4.656;2023-01-10T06:29:27;31.93;;;4.37;;
69305;SDS011;56427;51.580;4.656;2023-01-10T06:31:52;21.30;;;3.97;;
69305;SDS011;56427;51.580;4.656;2023-01-10T06:34:17;30.70;;;6.30;;
69305;SDS011;56427;51.580;4.656;2023-01-10T06:36:43;21.65;;;3.63;;
69305;SDS011;56427;51.580;4.656;2023-01-10T06:39:08;20.63;;;3.60;;
69305;SDS011;56427;51.580;4.656;2023-01-10T06:41:33;29.90;;;5.00;;
69305;SDS011;56427;51.580;4.656;2023-01-10T06:43:59;35.23;;;5.27;;
69305;SDS011;56427;51.580;4.656;2023-01-10T06:46:24;30.57;;;4.60;;
69305;SDS011;56427;51.580;4.656;2023-01-10T06:48:49;25.10;;;4.33;;
69305;SDS011;56427;51.580;4.656;2023-01-10T06:51:15;30.90;;;4.30;;
69305;SDS011;56427;51.580;4.656;2023-01-10T06:53:41;27.27;;;4.32;;
69305;SDS011;56427;51.580;4.656;2023-01-10T06:56:07;27.48;;;4.05;;
69305;SDS011;56427;51.580;4.656;2023-01-10T06:58:33;36.43;;;4.60;;
69305;SDS011;56427;51.580;4.656;2023-01-10T07:00:59;25.17;;;4.47;;
69305;SDS011;56427;51.580;4.656;2023-01-10T07:03:24;27.50;;;4.73;;
69305;SDS011;56427;51.580;4.656;2023-01-10T07:05:50;26.33;;;4.50;;
69305;SDS011;56427;51.580;4.656;2023-01-10T07:08:15;18.48;;;3.92;;
69305;SDS011;56427;51.580;4.656;2023-01-10T07:10:41;27.80;;;4.78;;
69305;SDS011;56427;51.580;4.656;2023-01-10T07:13:07;26.23;;;4.25;;
69305;SDS011;56427;51.580;4.656;2023-01-10T07:15:32;29.80;;;4.70;;
69305;SDS011;56427;51.580;4.656;2023-01-10T07:17:58;25.50;;;4.60;;
69305;SDS011;56427;51.580;4.656;2023-01-10T07:20:23;28.23;;;4.17;;
69305;SDS011;56427;51.580;4.656;2023-01-10T07:22:59;24.67;;;4.32;;
69305;SDS011;56427;51.580;4.656;2023-01-10T07:25:25;28.75;;;4.10;;
69305;SDS011;56427;51.580;4.656;2023-01-10T07:27:52;20.55;;;4.85;;
69305;SDS011;56427;51.580;4.656;2023-01-10T07:30:20;32.33;;;4.20;;
69305;SDS011;56427;51.580;4.656;2023-01-10T07:32:53;29.13;;;4.03;;
69305;SDS011;56427;51.580;4.656;2023-01-10T07:35:20;29.88;;;3.78;;
69305;SDS011;56427;51.580;4.656;2023-01-10T07:37:45;30.98;;;4.32;;
69305;SDS011;56427;51.580;4.656;2023-01-10T07:40:11;29.17;;;4.00;;
69305;SDS011;56427;51.580;4.656;2023-01-10T07:42:36;31.83;;;4.50;;
69305;SDS011;56427;51.580;4.656;2023-01-10T07:45:02;30.03;;;4.50;;
69305;SDS011;56427;51.580;4.656;2023-01-10T07:47:27;27.17;;;4.13;;
69305;SDS011;56427;51.580;4.656;2023-01-10T07:49:52;26.17;;;4.00;;
69305;SDS011;56427;51.580;4.656;2023-01-10T07:52:18;25.50;;;5.20;;
69305;SDS011;56427;51.580;4.656;2023-01-10T07:54:43;25.45;;;3.95;;
69305;SDS011;56427;51.580;4.656;2023-01-10T07:57:09;28.73;;;3.87;;
69305;SDS011;56427;51.580;4.656;2023-01-10T07:59:34;21.60;;;4.30;;
69305;SDS011;56427;51.580;4.656;2023-01-10T08:01:59;30.40;;;4.63;;
69305;SDS011;56427;51.580;4.656;2023-01-10T08:04:24;26.77;;;3.67;;
69305;SDS011;56427;51.580;4.656;2023-01-10T08:06:52;29.10;;;4.13;;
69305;SDS011;56427;51.580;4.656;2023-01-10T08:09:18;26.98;;;4.15;;
69305;SDS011;56427;51.580;4.656;2023-01-10T08:11:43;24.95;;;4.53;;
69305;SDS011;56427;51.580;4.656;2023-01-10T08:14:09;22.37;;;3.67;;
69305;SDS011;56427;51.580;4.656;2023-01-10T08:16:34;29.73;;;3.60;;
69305;SDS011;56427;51.580;4.656;2023-01-10T08:18:59;24.17;;;3.87;;
69305;SDS011;56427;51.580;4.656;2023-01-10T08:21:25;20.13;;;3.73;;
69305;SDS011;56427;51.580;4.656;2023-01-10T08:23:50;22.30;;;3.60;;
69305;SDS011;56427;51.580;4.656;2023-01-10T08:26:16;31.10;;;5.10;;
69305;SDS011;56427;51.580;4.656;2023-01-10T08:28:41;21.10;;;4.15;;
69305;SDS011;56427;51.580;4.656;2023-01-10T08:31:07;16.30;;;4.43;;
69305;SDS011;56427;51.580;4.656;2023-01-10T08:33:33;19.48;;;3.50;;
69305;SDS011;56427;51.580;4.656;2023-01-10T08:35:58;25.07;;;3.33;;
69305;SDS011;56427;51.580;4.656;2023-01-10T08:38:24;16.63;;;3.77;;
69305;SDS011;56427;51.580;4.656;2023-01-10T08:40:49;30.13;;;4.30;;
69305;SDS011;56427;51.580;4.656;2023-01-10T08:43:15;34.53;;;7.30;;
69305;SDS011;56427;51.580;4.656;2023-01-10T08:45:40;23.50;;;3.63;;
69305;SDS011;56427;51.580;4.656;2023-01-10T08:48:05;23.60;;;4.37;;
69305;SDS011;56427;51.580;4.656;2023-01-10T08:50:34;31.83;;;3.47;;
69305;SDS011;56427;51.580;4.656;2023-01-10T08:52:59;22.83;;;3.75;;
69305;SDS011;56427;51.580;4.656;2023-01-10T08:55:25;29.63;;;3.73;;
69305;SDS011;56427;51.580;4.656;2023-01-10T08:57:52;25.45;;;3.33;;
69305;SDS011;56427;51.580;4.656;2023-01-10T09:00:17;29.60;;;4.57;;
69305;SDS011;56427;51.580;4.656;2023-01-10T09:02:43;23.60;;;4.28;;
69305;SDS011;56427;51.580;4.656;2023-01-10T09:05:09;21.23;;;3.00;;
69305;SDS011;56427;51.580;4.656;2023-01-10T09:07:35;22.80;;;3.10;;
69305;SDS011;56427;51.580;4.656;2023-01-10T09:10:01;23.87;;;3.30;;
69305;SDS011;56427;51.580;4.656;2023-01-10T09:12:26;21.13;;;3.03;;
69305;SDS011;56427;51.580;4.656;2023-01-10T09:15:11;19.13;;;3.20;;
69305;SDS011;56427;51.580;4.656;2023-01-10T09:17:36;26.70;;;4.22;;
69305;SDS011;56427;51.580;4.656;2023-01-10T09:20:02;18.33;;;3.27;;
69305;SDS011;56427;51.580;4.656;2023-01-10T09:22:33;25.85;;;3.53;;
69305;SDS011;56427;51.580;4.656;2023-01-10T09:25:00;17.00;;;3.63;;
69305;SDS011;56427;51.580;4.656;2023-01-10T09:27:25;22.33;;;3.53;;
69305;SDS011;56427;51.580;4.656;2023-01-10T09:29:50;26.33;;;3.50;;
69305;SDS011;56427;51.580;4.656;2023-01-10T09:32:16;24.03;;;3.50;;
69305;SDS011;56427;51.580;4.656;2023-01-10T09:34:41;24.17;;;3.80;;
69305;SDS011;56427;51.580;4.656;2023-01-10T09:37:06;17.40;;;2.90;;
69305;SDS011;56427;51.580;4.656;2023-01-10T09:39:32;23.67;;;3.23;;
69305;SDS011;56427;51.580;4.656;2023-01-10T09:48:04;20.90;;;3.92;;
69305;SDS011;56427;51.580;4.656;2023-01-10T09:50:43;30.15;;;3.85;;
69305;SDS011;56427;51.580;4.656;2023-01-10T09:53:18;18.88;;;3.13;;
69305;SDS011;56427;51.580;4.656;2023-01-10T09:55:48;18.45;;;3.30;;
69305;SDS011;56427;51.580;4.656;2023-01-10T09:58:17;18.75;;;3.17;;
69305;SDS011;56427;51.580;4.656;2023-01-10T10:03:35;25.13;;;3.28;;
69305;SDS011;56427;51.580;4.656;2023-01-10T10:06:08;21.85;;;3.20;;
69305;SDS011;56427;51.580;4.656;2023-01-10T10:08:36;18.73;;;2.83;;
69305;SDS011;56427;51.580;4.656;2023-01-10T10:19:34;17.42;;;3.08;;
69305;SDS011;56427;51.580;4.656;2023-01-10T10:22:11;17.92;;;3.03;;
69305;SDS011;56427;51.580;4.656;2023-01-10T10:24:49;17.77;;;3.35;;
69305;SDS011;56427;51.580;4.656;2023-01-10T10:27:41;20.23;;;3.20;;
69305;SDS011;56427;51.580;4.656;2023-01-10T10:35:56;19.38;;;3.22;;
69305;SDS011;56427;51.580;4.656;2023-01-10T10:38:31;19.55;;;2.90;;
69305;SDS011;56427;51.580;4.656;2023-01-10T10:41:01;16.92;;;3.22;;
69305;SDS011;56427;51.580;4.656;2023-01-10T10:43:36;18.08;;;3.30;;
69305;SDS011;56427;51.580;4.656;2023-01-10T10:46:06;23.27;;;4.25;;
69305;SDS011;56427;51.580;4.656;2023-01-10T10:48:35;19.95;;;2.90;;
69305;SDS011;56427;51.580;4.656;2023-01-10T10:51:20;20.27;;;3.10;;
69305;SDS011;56427;51.580;4.656;2023-01-10T10:53:50;17.67;;;2.97;;
69305;SDS011;56427;51.580;4.656;2023-01-10T10:56:17;20.67;;;2.95;;
69305;SDS011;56427;51.580;4.656;2023-01-10T10:58:47;21.63;;;3.05;;
69305;SDS011;56427;51.580;4.656;2023-01-10T11:01:14;21.67;;;4.00;;
69305;SDS011;56427;51.580;4.656;2023-01-10T11:04:23;19.57;;;3.30;;
69305;SDS011;56427;51.580;4.656;2023-01-10T11:06:32;18.02;;;3.38;;
69305;SDS011;56427;51.580;4.656;2023-01-10T11:09:01;20.98;;;3.60;;
69305;SDS011;56427;51.580;4.656;2023-01-10T11:11:29;18.63;;;3.40;;
69305;SDS011;56427;51.580;4.656;2023-01-10T11:14:38;19.45;;;3.95;;
69305;SDS011;56427;51.580;4.656;2023-01-10T11:19:57;18.58;;;3.15;;
69305;SDS011;56427;51.580;4.656;2023-01-10T11:22:27;21.77;;;3.35;;
69305;SDS011;56427;51.580;4.656;2023-01-10T11:25:14;21.77;;;3.00;;
69305;SDS011;56427;51.580;4.656;2023-01-10T11:28:02;17.85;;;3.40;;
69305;SDS011;56427;51.580;4.656;2023-01-10T11:30:28;18.53;;;3.87;;
69305;SDS011;56427;51.580;4.656;2023-01-10T11:32:57;16.10;;;3.45;;
69305;SDS011;56427;51.580;4.656;2023-01-10T11:35:26;20.60;;;2.80;;
69305;SDS011;56427;51.580;4.656;2023-01-10T11:37:58;20.17;;;3.13;;
69305;SDS011;56427;51.580;4.656;2023-01-10T11:40:26;15.55;;;3.00;;
69305;SDS011;56427;51.580;4.656;2023-01-10T11:42:53;22.50;;;3.23;;
69305;SDS011;56427;51.580;4.656;2023-01-10T11:45:25;17.92;;;3.22;;
69305;SDS011;56427;51.580;4.656;2023-01-10T11:47:54;15.27;;;2.88;;
69305;SDS011;56427;51.580;4.656;2023-01-10T11:50:25;21.70;;;3.25;;
69305;SDS011;56427;51.580;4.656;2023-01-10T11:52:52;19.60;;;3.45;;
69305;SDS011;56427;51.580;4.656;2023-01-10T11:55:24;14.43;;;2.60;;
69305;SDS011;56427;51.580;4.656;2023-01-10T11:57:57;19.48;;;2.97;;
69305;SDS011;56427;51.580;4.656;2023-01-10T12:00:42;23.45;;;3.08;;
69305;SDS011;56427;51.580;4.656;2023-01-10T12:03:43;19.65;;;2.88;;
69305;SDS011;56427;51.580;4.656;2023-01-10T12:06:08;16.03;;;3.10;;
69305;SDS011;56427;51.580;4.656;2023-01-10T12:08:41;23.35;;;3.50;;
69305;SDS011;56427;51.580;4.656;2023-01-10T12:14:01;18.60;;;3.65;;
69305;SDS011;56427;51.580;4.656;2023-01-10T12:16:27;16.90;;;3.47;;
69305;SDS011;56427;51.580;4.656;2023-01-10T12:19:01;21.17;;;3.92;;
69305;SDS011;56427;51.580;4.656;2023-01-10T12:21:38;21.38;;;4.05;;
69305;SDS011;56427;51.580;4.656;2023-01-10T12:24:05;15.57;;;2.97;;
69305;SDS011;56427;51.580;4.656;2023-01-10T12:26:38;19.80;;;3.10;;
69305;SDS011;56427;51.580;4.656;2023-01-10T12:29:07;23.58;;;3.60;;
69305;SDS011;56427;51.580;4.656;2023-01-10T12:31:39;22.27;;;3.75;;
69305;SDS011;56427;51.580;4.656;2023-01-10T12:34:13;23.37;;;3.37;;
69305;SDS011;56427;51.580;4.656;2023-01-10T12:39:32;14.68;;;3.40;;
69305;SDS011;56427;51.580;4.656;2023-01-10T12:45:05;24.65;;;3.42;;
69305;SDS011;56427;51.580;4.656;2023-01-10T12:47:42;19.07;;;3.53;;
69305;SDS011;56427;51.580;4.656;2023-01-10T12:55:36;25.92;;;3.22;;
69305;SDS011;56427;51.580;4.656;2023-01-10T12:58:11;14.50;;;2.70;;
69305;SDS011;56427;51.580;4.656;2023-01-10T13:01:02;23.60;;;3.40;;
69305;SDS011;56427;51.580;4.656;2023-01-10T13:03:31;22.40;;;3.63;;
69305;SDS011;56427;51.580;4.656;2023-01-10T13:05:58;15.82;;;2.92;;
69305;SDS011;56427;51.580;4.656;2023-01-10T13:08:25;20.13;;;2.97;;
69305;SDS011;56427;51.580;4.656;2023-01-10T13:10:54;16.95;;;3.00;;
69305;SDS011;56427;51.580;4.656;2023-01-10T13:21:35;18.23;;;2.88;;
69305;SDS011;56427;51.580;4.656;2023-01-10T13:24:03;21.58;;;3.63;;
69305;SDS011;56427;51.580;4.656;2023-01-10T13:29:18;19.42;;;3.50;;
69305;SDS011;56427;51.580;4.656;2023-01-10T13:31:46;20.73;;;4.50;;
69305;SDS011;56427;51.580;4.656;2023-01-10T13:34:14;17.00;;;3.17;;
69305;SDS011;56427;51.580;4.656;2023-01-10T13:36:41;21.92;;;5.35;;
69305;SDS011;56427;51.580;4.656;2023-01-10T13:39:18;20.67;;;3.70;;
69305;SDS011;56427;51.580;4.656;2023-01-10T14:08:58;21.30;;;3.65;;
69305;SDS011;56427;51.580;4.656;2023-01-10T14:16:53;19.08;;;2.75;;
69305;SDS011;56427;51.580;4.656;2023-01-10T14:19:27;18.10;;;3.67;;
69305;SDS011;56427;51.580;4.656;2023-01-10T14:21:55;28.88;;;4.03;;
69305;SDS011;56427;51.580;4.656;2023-01-10T14:24:28;20.13;;;3.40;;
69305;SDS011;56427;51.580;4.656;2023-01-10T14:27:05;21.23;;;3.22;;
69305;SDS011;56427;51.580;4.656;2023-01-10T14:29:36;23.77;;;3.72;;
69305;SDS011;56427;51.580;4.656;2023-01-10T14:32:02;26.58;;;3.60;;
69305;SDS011;56427;51.580;4.656;2023-01-10T14:34:39;19.00;;;3.40;;
69305;SDS011;56427;51.580;4.656;2023-01-10T14:37:30;17.85;;;4.70;;
69305;SDS011;56427;51.580;4.656;2023-01-10T14:40:05;21.13;;;3.47;;
69305;SDS011;56427;51.580;4.656;2023-01-10T14:42:41;26.77;;;3.95;;
69305;SDS011;56427;51.580;4.656;2023-01-10T14:47:58;22.27;;;3.70;;
69305;SDS011;56427;51.580;4.656;2023-01-10T14:50:28;13.73;;;3.53;;
69305;SDS011;56427;51.580;4.656;2023-01-10T14:52:56;19.00;;;3.42;;
69305;SDS011;56427;51.580;4.656;2023-01-10T14:55:22;20.13;;;4.93;;
69305;SDS011;56427;51.580;4.656;2023-01-10T14:57:54;18.13;;;2.90;;
69305;SDS011;56427;51.580;4.656;2023-01-10T15:00:25;19.65;;;3.78;;
69305;SDS011;56427;51.580;4.656;2023-01-10T15:02:54;13.50;;;3.67;;
69305;SDS011;56427;51.580;4.656;2023-01-10T15:05:20;13.13;;;3.30;;
69305;SDS011;56427;51.580;4.656;2023-01-10T15:07:49;18.98;;;3.42;;
69305;SDS011;56427;51.580;4.656;2023-01-10T15:10:30;17.27;;;3.00;;
69305;SDS011;56427;51.580;4.656;2023-01-10T15:12:59;16.13;;;3.05;;
69305;SDS011;56427;51.580;4.656;2023-01-10T15:15:31;17.25;;;3.10;;
69305;SDS011;56427;51.580;4.656;2023-01-10T15:17:59;19.15;;;3.40;;
69305;SDS011;56427;51.580;4.656;2023-01-10T15:20:27;19.20;;;3.50;;
69305;SDS011;56427;51.580;4.656;2023-01-10T15:22:54;14.55;;;3.28;;
69305;SDS011;56427;51.580;4.656;2023-01-10T15:25:25;11.57;;;3.60;;
69305;SDS011;56427;51.580;4.656;2023-01-10T15:27:52;16.00;;;4.00;;
69305;SDS011;56427;51.580;4.656;2023-01-10T15:32:49;15.55;;;4.20;;
69305;SDS011;56427;51.580;4.656;2023-01-10T15:35:18;8.63;;;3.13;;
69305;SDS011;56427;51.580;4.656;2023-01-10T15:37:56;14.20;;;3.63;;
69305;SDS011;56427;51.580;4.656;2023-01-10T15:40:32;12.35;;;4.10;;
69305;SDS011;56427;51.580;4.656;2023-01-10T15:45:37;11.65;;;3.13;;
69305;SDS011;56427;51.580;4.656;2023-01-10T15:48:04;14.10;;;3.55;;
69305;SDS011;56427;51.580;4.656;2023-01-10T15:50:31;11.10;;;3.70;;
69305;SDS011;56427;51.580;4.656;2023-01-10T15:52:58;16.05;;;4.00;;
69305;SDS011;56427;51.580;4.656;2023-01-10T15:55:36;12.30;;;3.75;;
69305;SDS011;56427;51.580;4.656;2023-01-10T16:00:51;12.02;;;4.13;;
69305;SDS011;56427;51.580;4.656;2023-01-10T16:05:53;14.03;;;4.10;;
69305;SDS011;56427;51.580;4.656;2023-01-10T16:08:23;11.10;;;3.67;;
69305;SDS011;56427;51.580;4.656;2023-01-10T16:10:51;8.45;;;3.85;;
69305;SDS011;56427;51.580;4.656;2023-01-10T16:13:24;8.48;;;4.47;;
69305;SDS011;56427;51.580;4.656;2023-01-10T16:15:56;11.77;;;4.18;;
69305;SDS011;56427;51.580;4.656;2023-01-10T16:18:23;15.05;;;4.07;;
69305;SDS011;56427;51.580;4.656;2023-01-10T16:20:49;10.80;;;4.47;;
69305;SDS011;56427;51.580;4.656;2023-01-10T16:23:27;5.90;;;2.97;;
69305;SDS011;56427;51.580;4.656;2023-01-10T16:25:57;8.02;;;3.35;;
69305;SDS011;56427;51.580;4.656;2023-01-10T16:28:24;9.13;;;3.35;;
69305;SDS011;56427;51.580;4.656;2023-01-10T16:30:53;9.95;;;4.70;;
69305;SDS011;56427;51.580;4.656;2023-01-10T16:33:19;8.68;;;3.90;;
69305;SDS011;56427;51.580;4.656;2023-01-10T16:35:48;7.80;;;5.50;;
69305;SDS011;56427;51.580;4.656;2023-01-10T16:38:16;9.13;;;4.88;;
69305;SDS011;56427;51.580;4.656;2023-01-10T16:40:43;8.40;;;5.10;;
69305;SDS011;56427;51.580;4.656;2023-01-10T16:45:30;7.87;;;4.60;;
69305;SDS011;56427;51.580;4.656;2023-01-10T16:47:55;6.47;;;4.00;;
69305;SDS011;56427;51.580;4.656;2023-01-10T16:50:20;7.57;;;4.57;;
69305;SDS011;56427;51.580;4.656;2023-01-10T16:52:46;6.47;;;4.07;;
69305;SDS011;56427;51.580;4.656;2023-01-10T16:55:13;4.83;;;3.70;;
69305;SDS011;56427;51.580;4.656;2023-01-10T16:57:41;5.22;;;3.90;;
69305;SDS011;56427;51.580;4.656;2023-01-10T17:00:10;6.47;;;4.70;;
69305;SDS011;56427;51.580;4.656;2023-01-10T17:02:39;5.28;;;4.22;;